Time;durP1;ratioP1;P1;durP2;ratioP2;P2;SDS_P1;SDS_P2;PMS_P1;PMS_P2;Temp;Humidity;BMP_temperature;BMP_pressure;BME280_temperature;BME280_humidity;BME280_pressure;Samples;Min_cycle;Max_cycle;Signal;HPM_P1;HPM_P2
2022/08/19 00:02:27;;;;;;;7.65;3.87;;;;;;;25.03;100.00;99185.09;1640755;87;21538;-73
2022/08/19 00:04:54;;;;;;;12.23;4.45;;;;;;;24.98;100.00;99181.36;1640994;87;21277;-75
2022/08/19 00:07:20;;;;;;;12.75;4.05;;;;;;;24.94;100.00;99181.44;1641268;87;21503;-75
2022/08/19 00:09:49;;;;;;;14.28;4.42;;;;;;;24.85;100.00;99180.54;1637852;85;21046;-75
2022/08/19 00:12:20;;;;;;;7.65;3.98;;;;;;;24.82;100.00;99184.22;1639444;87;21079;-73
2022/08/19 00:14:48;;;;;;;7.22;3.72;;;;;;;24.82;100.00;99183.41;1641250;87;21006;-69
2022/08/19 00:17:17;;;;;;;7.42;4.10;;;;;;;24.78;100.00;99187.08;1641529;87;21182;-70
2022/08/19 00:19:46;;;;;;;14.53;4.00;;;;;;;24.74;100.00;99187.73;1640865;86;21102;-69
2022/08/19 00:22:18;;;;;;;11.80;4.53;;;;;;;24.69;100.00;99183.99;1636237;87;21035;-77
2022/08/19 00:24:45;;;;;;;13.90;4.30;;;;;;;24.71;100.00;99178.73;1641927;84;21054;-75
2022/08/19 00:27:16;;;;;;;12.65;4.28;;;;;;;24.72;100.00;99180.32;1649005;85;21597;-77
2022/08/19 00:29:48;;;;;;;7.95;3.75;;;;;;;24.73;100.00;99186.76;1640831;85;21110;-81
2022/08/19 00:32:17;;;;;;;10.68;3.92;;;;;;;24.73;100.00;99183.34;1641027;85;21095;-73
2022/08/19 00:34:44;;;;;;;19.90;4.15;;;;;;;24.69;100.00;99181.17;1640900;87;21091;-72
2022/08/19 00:37:16;;;;;;;11.78;3.80;;;;;;;24.64;100.00;99182.46;1641595;87;21486;-75
2022/08/19 00:39:45;;;;;;;9.35;3.70;;;;;;;24.63;100.00;99178.66;1638963;87;21071;-76
2022/08/19 00:42:15;;;;;;;11.15;4.17;;;;;;;24.62;100.00;99179.27;1644691;85;21725;-75
2022/08/19 00:44:45;;;;;;;8.90;4.20;;;;;;;24.66;100.00;99180.63;1639308;86;20963;-76
2022/08/19 00:47:11;;;;;;;13.25;3.90;;;;;;;24.64;100.00;99184.47;1642112;85;21059;-73
2022/08/19 00:49:48;;;;;;;8.98;3.77;;;;;;;24.64;100.00;99188.70;1650362;85;21020;-79
2022/08/19 00:52:24;;;;;;;10.40;3.98;;;;;;;24.63;100.00;99191.34;1656514;85;21039;-75
2022/08/19 00:54:54;;;;;;;9.65;3.92;;;;;;;24.65;100.00;99188.91;1659469;85;21683;-80
2022/08/19 00:57:26;;;;;;;10.95;4.60;;;;;;;24.62;100.00;99196.77;1653252;86;21095;-74
2022/08/19 00:59:54;;;;;;;9.43;4.42;;;;;;;24.63;100.00;99202.60;1653777;85;21563;-71
2022/08/19 01:02:24;;;;;;;12.95;4.45;;;;;;;24.64;100.00;99202.77;1651804;86;21532;-77
2022/08/19 01:04:52;;;;;;;8.00;4.35;;;;;;;24.62;100.00;99207.42;1655718;86;21043;-70
2022/08/19 01:07:22;;;;;;;11.18;5.40;;;;;;;24.58;100.00;99207.30;1654072;86;21153;-74
2022/08/19 01:09:53;;;;;;;8.45;5.10;;;;;;;24.57;100.00;99205.72;1656660;86;21025;-69
2022/08/19 01:12:22;;;;;;;12.80;5.33;;;;;;;24.58;100.00;99204.48;1660992;85;21096;-77
2022/08/19 01:14:53;;;;;;;18.27;5.80;;;;;;;24.55;100.00;99206.92;1609013;87;20997;-69
2022/08/19 01:17:20;;;;;;;15.32;6.85;;;;;;;24.53;100.00;99206.54;1663682;84;21031;-77
2022/08/19 01:19:47;;;;;;;12.68;5.00;;;;;;;24.51;100.00;99207.59;1665333;85;21446;-76
2022/08/19 01:22:31;;;;;;;10.38;4.37;;;;;;;24.50;100.00;99210.81;1663282;86;21035;-73
2022/08/19 01:25:02;;;;;;;8.43;3.85;;;;;;;24.52;100.00;99213.41;1669549;84;21048;-75
2022/08/19 01:27:43;;;;;;;15.20;4.95;;;;;;;24.55;100.00;99209.73;1663576;86;21051;-74
2022/08/19 01:30:16;;;;;;;7.75;4.03;;;;;;;24.53;100.00;99203.72;1658453;86;21099;-75
2022/08/19 01:32:44;;;;;;;9.50;5.12;;;;;;;24.44;100.00;99202.06;1662359;84;21150;-74
2022/08/19 01:35:23;;;;;;;12.20;4.60;;;;;;;24.42;100.00;99203.89;1658228;86;21104;-75
2022/08/19 01:37:51;;;;;;;14.20;4.58;;;;;;;24.40;100.00;99206.33;1660129;86;21012;-73
2022/08/19 01:40:23;;;;;;;12.07;4.87;;;;;;;24.40;100.00;99199.29;1663466;84;21064;-70
2022/08/19 01:42:52;;;;;;;8.00;4.47;;;;;;;24.42;100.00;99195.45;1663647;86;21115;-76
2022/08/19 01:45:23;;;;;;;10.08;4.65;;;;;;;24.40;100.00;99185.82;1665628;84;21047;-77
2022/08/19 01:47:51;;;;;;;10.05;4.28;;;;;;;24.30;100.00;99184.75;1663209;84;21580;-70
2022/08/19 01:50:23;;;;;;;9.23;4.67;;;;;;;24.23;100.00;99187.05;1635060;86;21110;-77
2022/08/19 01:52:50;;;;;;;8.88;4.50;;;;;;;24.18;100.00;99184.71;1633131;87;21050;-71
2022/08/19 01:55:20;;;;;;;10.35;4.90;;;;;;;24.18;100.00;99186.12;1632780;87;21092;-74
2022/08/19 01:57:57;;;;;;;11.33;4.97;;;;;;;24.21;100.00;99183.86;1632082;87;21092;-72
2022/08/19 02:00:27;;;;;;;14.63;5.05;;;;;;;24.25;100.00;99182.41;1626665;87;21063;-73
2022/08/19 02:02:54;;;;;;;10.25;4.15;;;;;;;24.25;100.00;99178.19;1628796;87;21026;-76
2022/08/19 02:05:25;;;;;;;14.80;4.80;;;;;;;24.24;100.00;99179.42;1634873;87;21047;-72
2022/08/19 02:07:53;;;;;;;11.12;4.50;;;;;;;24.18;100.00;99177.08;1631127;87;21054;-73
2022/08/19 02:10:24;;;;;;;11.48;4.47;;;;;;;24.13;100.00;99181.73;1634618;87;21003;-77
2022/08/19 02:12:52;;;;;;;15.32;4.97;;;;;;;24.14;100.00;99183.95;1631558;87;21067;-74
2022/08/19 02:15:25;;;;;;;14.93;5.12;;;;;;;24.13;100.00;99185.15;1631806;87;21032;-79
2022/08/19 02:17:52;;;;;;;19.60;5.10;;;;;;;24.14;100.00;99186.13;1633571;87;21011;-78
2022/08/19 02:20:18;;;;;;;11.85;4.58;;;;;;;24.14;100.00;99188.95;1626436;87;21521;-75
2022/08/19 02:22:50;;;;;;;17.98;4.90;;;;;;;24.11;100.00;99181.95;1632317;87;21131;-73
2022/08/19 02:25:19;;;;;;;16.48;4.70;;;;;;;24.05;100.00;99192.27;1633988;87;21115;-75
2022/08/19 02:27:49;;;;;;;8.75;3.98;;;;;;;24.06;100.00;99190.25;1629042;87;21043;-69
2022/08/19 02:30:18;;;;;;;9.75;4.47;;;;;;;24.10;100.00;99187.41;1634729;87;20999;-75
2022/08/19 02:32:48;;;;;;;6.67;4.55;;;;;;;24.13;100.00;99192.98;1628198;87;21569;-71
2022/08/19 02:35:15;;;;;;;11.40;4.92;;;;;;;24.14;100.00;99190.98;1630799;87;22163;-77
2022/08/19 02:40:35;;;;;;;13.20;5.00;;;;;;;24.09;100.00;99190.81;1631515;87;21041;-69
2022/08/19 02:43:04;;;;;;;8.23;4.40;;;;;;;24.05;100.00;99195.08;1608199;87;21022;-75
2022/08/19 02:45:35;;;;;;;11.97;5.17;;;;;;;24.01;100.00;99195.75;1633238;87;21107;-77
2022/08/19 02:48:04;;;;;;;7.62;4.95;;;;;;;24.04;100.00;99196.30;1634329;87;21182;-75
2022/08/19 02:50:36;;;;;;;17.35;4.97;;;;;;;24.00;100.00;99198.38;1655406;86;21582;-79
2022/08/19 02:53:03;;;;;;;12.28;4.90;;;;;;;23.99;100.00;99199.59;1639278;86;21515;-77
2022/08/19 02:55:34;;;;;;;12.15;5.12;;;;;;;23.99;100.00;99200.19;1661831;86;21052;-76
2022/08/19 02:58:02;;;;;;;14.40;5.45;;;;;;;24.01;100.00;99205.59;1663633;84;21107;-73
2022/08/19 03:00:29;;;;;;;10.53;4.65;;;;;;;24.00;100.00;99208.23;1663319;86;21163;-75
2022/08/19 03:02:56;;;;;;;11.48;4.70;;;;;;;23.98;100.00;99214.88;1665284;84;21595;-72
2022/08/19 03:05:23;;;;;;;13.13;4.97;;;;;;;23.97;100.00;99205.45;1663678;86;21032;-77
2022/08/19 03:07:50;;;;;;;7.70;5.50;;;;;;;23.96;100.00;99204.65;1666641;84;21067;-70
2022/08/19 03:10:20;;;;;;;11.80;5.17;;;;;;;23.93;100.00;99208.30;1665751;84;21024;-74
2022/08/19 03:12:48;;;;;;;18.62;5.55;;;;;;;23.86;100.00;99207.78;1660204;86;21172;-75
2022/08/19 03:15:21;;;;;;;10.18;5.12;;;;;;;23.83;100.00;99206.59;1663561;84;20964;-69
2022/08/19 03:17:49;;;;;;;11.40;5.87;;;;;;;23.82;100.00;99210.63;1662450;84;21079;-75
2022/08/19 03:20:18;;;;;;;15.03;5.05;;;;;;;23.79;100.00;99211.47;1663619;86;21536;-69
2022/08/19 03:22:45;;;;;;;20.52;5.53;;;;;;;23.75;100.00;99217.73;1662448;86;21078;-75
2022/08/19 03:25:14;;;;;;;9.45;5.10;;;;;;;23.71;100.00;99220.58;1660444;84;21350;-75
2022/08/19 03:27:41;;;;;;;26.02;7.85;;;;;;;23.57;100.00;99222.95;1663755;84;21086;-75
2022/08/19 03:30:13;;;;;;;10.50;5.08;;;;;;;23.56;100.00;99219.16;1661639;86;21044;-72
2022/08/19 03:32:40;;;;;;;12.03;5.20;;;;;;;23.53;100.00;99220.77;1662590;86;21670;-74
2022/08/19 03:35:07;;;;;;;12.80;5.12;;;;;;;23.50;100.00;99221.61;1662963;86;21007;-74
2022/08/19 03:37:34;;;;;;;13.88;5.60;;;;;;;23.49;100.00;99225.62;1663478;84;21548;-74
2022/08/19 03:40:03;;;;;;;21.57;5.55;;;;;;;23.44;100.00;99224.06;1670309;84;21091;-78
2022/08/19 03:42:36;;;;;;;18.52;5.75;;;;;;;23.38;100.00;99227.70;1663679;86;21641;-77
2022/08/19 03:45:07;;;;;;;11.28;5.60;;;;;;;23.44;100.00;99231.72;1663705;86;21551;-69
2022/08/19 03:47:34;;;;;;;16.25;5.58;;;;;;;23.48;100.00;99231.66;1664262;84;21032;-74
2022/08/19 03:50:02;;;;;;;14.93;5.95;;;;;;;23.52;100.00;99229.63;1653560;86;21530;-76
2022/08/19 03:52:31;;;;;;;17.85;5.37;;;;;;;23.56;100.00;99238.20;1636500;87;21590;-78
2022/08/19 03:55:00;;;;;;;11.83;5.62;;;;;;;23.56;100.00;99245.23;1636442;87;21023;-78
2022/08/19 03:57:30;;;;;;;9.28;5.00;;;;;;;23.58;100.00;99236.38;1640836;85;21001;-72
2022/08/19 03:59:58;;;;;;;11.48;5.10;;;;;;;23.63;100.00;99238.73;1636846;87;20995;-70
2022/08/19 04:02:31;;;;;;;11.15;5.03;;;;;;;23.69;100.00;99244.72;1627744;87;21508;-74
2022/08/19 04:04:57;;;;;;;20.27;6.00;;;;;;;23.73;100.00;99239.84;1636606;87;21031;-74
2022/08/19 04:07:25;;;;;;;12.70;5.90;;;;;;;23.76;100.00;99237.63;1640036;85;21031;-78
2022/08/19 04:09:53;;;;;;;12.23;5.70;;;;;;;23.77;100.00;99242.62;1634433;87;21038;-72
2022/08/19 04:12:20;;;;;;;11.63;5.70;;;;;;;23.74;100.00;99235.83;1636585;87;20999;-72
2022/08/19 04:14:50;;;;;;;10.58;5.33;;;;;;;23.73;100.00;99235.62;1636769;87;21214;-77
2022/08/19 04:17:19;;;;;;;12.30;5.40;;;;;;;23.66;100.00;99239.94;1640004;85;21054;-75
2022/08/19 04:19:46;;;;;;;15.25;4.72;;;;;;;23.59;100.00;99244.39;1637051;86;21016;-71
2022/08/19 04:22:14;;;;;;;8.05;4.83;;;;;;;23.61;100.00;99248.82;1616156;87;21083;-78
2022/08/19 04:24:41;;;;;;;7.58;5.35;;;;;;;23.59;100.00;99252.05;1636969;87;21010;-77
2022/08/19 04:27:09;;;;;;;11.20;4.20;;;;;;;23.62;100.00;99251.81;1638189;85;21822;-73
2022/08/19 04:29:41;;;;;;;15.70;5.17;;;;;;;23.66;100.00;99251.18;1636709;87;21039;-75
2022/08/19 04:32:14;;;;;;;11.03;4.95;;;;;;;23.75;100.00;99252.10;1636874;87;21008;-76
2022/08/19 04:34:42;;;;;;;15.88;5.95;;;;;;;23.80;100.00;99252.42;1636735;87;21006;-73
2022/08/19 04:37:12;;;;;;;12.63;5.50;;;;;;;23.89;100.00;99257.56;1620061;86;21075;-72
2022/08/19 04:45:13;;;;;;;16.32;5.15;;;;;;;24.01;100.00;99263.86;1635653;85;20966;-74
2022/08/19 04:47:43;;;;;;;18.30;5.47;;;;;;;24.09;100.00;99259.74;1640842;85;21115;-78
2022/08/19 04:50:11;;;;;;;13.35;5.00;;;;;;;24.21;100.00;99264.69;1644642;85;21099;-78
2022/08/19 04:52:44;;;;;;;12.90;4.62;;;;;;;24.30;100.00;99269.99;1663728;84;21083;-78
2022/08/19 04:55:14;;;;;;;9.88;4.08;;;;;;;24.36;100.00;99275.93;1662693;86;21075;-74
2022/08/19 04:57:46;;;;;;;11.73;5.08;;;;;;;24.37;100.00;99272.52;1664135;84;21063;-78
2022/08/19 05:00:16;;;;;;;12.07;4.40;;;;;;;24.39;100.00;99278.53;1658780;84;21103;-74
2022/08/19 05:02:45;;;;;;;12.58;4.60;;;;;;;24.45;100.00;99276.83;1668534;84;21021;-73
2022/08/19 05:05:13;;;;;;;17.92;5.28;;;;;;;24.53;100.00;99284.59;1663168;84;21119;-75
2022/08/19 05:07:41;;;;;;;10.43;5.03;;;;;;;24.54;100.00;99281.95;1662893;84;21091;-73
2022/08/19 05:10:10;;;;;;;17.90;5.22;;;;;;;24.50;100.00;99284.81;1663539;86;21126;-74
2022/08/19 05:12:37;;;;;;;14.50;4.40;;;;;;;24.52;100.00;99276.75;1663709;86;21064;-72
2022/08/19 05:15:08;;;;;;;11.57;4.30;;;;;;;24.57;100.00;99277.52;1670919;84;21024;-73
2022/08/19 05:22:31;;;;;;;10.78;4.67;;;;;;;24.65;100.00;99278.38;1662753;84;21243;-80
2022/08/19 05:23:02;;;;;;;10.25;4.05;;;;;;;24.80;100.00;99286.64;1629525;87;21077;-75
2022/08/19 05:25:28;;;;;;;14.07;4.37;;;;;;;24.78;100.00;99285.66;1662473;84;21148;-75
2022/08/19 05:27:55;;;;;;;13.83;5.00;;;;;;;24.76;100.00;99289.50;1663431;85;21603;-77
2022/08/19 05:30:23;;;;;;;8.83;4.95;;;;;;;24.77;100.00;99285.45;1663732;86;21143;-73
2022/08/19 05:32:56;;;;;;;13.78;5.05;;;;;;;24.84;100.00;99285.19;1635392;86;21058;-74
2022/08/19 05:35:26;;;;;;;14.43;5.28;;;;;;;24.87;100.00;99282.92;1662233;86;21070;-73
2022/08/19 05:37:54;;;;;;;5.92;4.00;;;;;;;24.93;100.00;99285.47;1661129;86;20877;-77
2022/08/19 05:40:25;;;;;;;22.55;4.78;;;;;;;25.02;100.00;99286.35;1662811;86;21047;-76
2022/08/19 05:42:54;;;;;;;9.93;4.33;;;;;;;25.04;100.00;99281.87;1655270;86;21211;-73
2022/08/19 05:45:25;;;;;;;21.50;4.78;;;;;;;25.10;100.00;99270.92;1654863;86;21024;-77
2022/08/19 05:47:52;;;;;;;12.58;4.47;;;;;;;25.17;100.00;99277.06;1661763;86;21067;-70
2022/08/19 05:50:19;;;;;;;11.33;4.90;;;;;;;25.18;100.00;99273.64;1663409;86;21095;-74
2022/08/19 05:52:49;;;;;;;11.93;4.42;;;;;;;25.08;100.00;99281.05;1659731;86;21076;-67
2022/08/19 05:55:15;;;;;;;16.60;5.03;;;;;;;25.13;100.00;99289.02;1660180;86;21523;-75
2022/08/19 05:57:44;;;;;;;14.23;4.50;;;;;;;24.99;100.00;99286.58;1657004;86;20977;-69
2022/08/19 06:00:20;;;;;;;11.25;4.42;;;;;;;25.15;100.00;99283.73;1632339;86;21087;-68
2022/08/19 06:02:56;;;;;;;11.83;5.00;;;;;;;25.06;100.00;99292.72;1662457;86;21015;-73
2022/08/19 06:05:24;;;;;;;12.75;4.87;;;;;;;25.09;100.00;99286.85;1661313;86;21552;-76
2022/08/19 06:07:50;;;;;;;14.50;5.05;;;;;;;25.07;100.00;99283.05;1663828;86;21144;-70
2022/08/19 06:10:25;;;;;;;17.70;4.87;;;;;;;25.05;100.00;99285.49;1659226;86;21122;-70
2022/08/19 06:12:53;;;;;;;20.95;4.87;;;;;;;25.09;100.00;99278.40;1663735;86;21596;-70
2022/08/19 06:15:27;;;;;;;11.63;4.50;;;;;;;25.20;100.00;99274.02;1656561;86;21071;-68
2022/08/19 06:17:57;;;;;;;14.23;4.78;;;;;;;25.36;100.00;99267.70;1656739;86;21864;-70
2022/08/19 06:20:32;;;;;;;13.98;4.47;;;;;;;25.33;100.00;99262.92;1658294;86;21042;-69
2022/08/19 06:23:02;;;;;;;18.15;4.60;;;;;;;25.42;100.00;99260.97;1660767;86;21604;-67
2022/08/19 06:25:39;;;;;;;11.63;5.17;;;;;;;25.53;100.00;99268.02;1663753;86;21016;-67
2022/08/19 06:28:07;;;;;;;28.92;5.45;;;;;;;25.63;100.00;99271.06;1665024;84;21031;-71
2022/08/19 06:30:39;;;;;;;12.47;4.30;;;;;;;25.55;100.00;99268.19;1663527;86;21055;-70
2022/08/19 06:33:12;;;;;;;14.00;4.20;;;;;;;25.57;100.00;99265.74;1662869;86;21252;-72
2022/08/19 06:35:46;;;;;;;13.28;4.92;;;;;;;25.63;100.00;99264.01;1660579;86;21057;-74
2022/08/19 06:38:22;;;;;;;14.20;5.10;;;;;;;25.60;100.00;99264.88;1639307;86;21039;-72
2022/08/19 06:40:56;;;;;;;16.07;4.65;;;;;;;25.68;100.00;99262.13;1661104;86;21012;-69
2022/08/19 06:43:27;;;;;;;10.80;4.53;;;;;;;25.67;100.00;99266.20;1660812;86;21095;-70
2022/08/19 06:46:03;;;;;;;9.28;4.53;;;;;;;25.53;100.00;99263.78;1663783;86;21043;-70
2022/08/19 06:48:34;;;;;;;14.53;4.83;;;;;;;25.47;100.00;99268.30;1665686;84;21011;-75
2022/08/19 06:51:05;;;;;;;15.05;4.62;;;;;;;25.57;100.00;99270.78;1653314;86;21607;-79
2022/08/19 06:53:39;;;;;;;13.90;5.12;;;;;;;25.87;100.00;99266.83;1636843;87;21016;-75
2022/08/19 06:56:09;;;;;;;17.82;5.47;;;;;;;25.86;100.00;99266.66;1637551;87;21063;-76
2022/08/19 06:58:41;;;;;;;13.00;4.60;;;;;;;26.03;100.00;99276.02;1633752;87;21562;-75
2022/08/19 07:01:12;;;;;;;28.80;5.65;;;;;;;26.08;100.00;99277.52;1637032;87;21060;-72
2022/08/19 07:03:43;;;;;;;10.15;4.28;;;;;;;26.27;100.00;99289.25;1634908;87;21063;-70
2022/08/19 07:06:22;;;;;;;11.93;3.80;;;;;;;26.17;100.00;99284.79;1631711;87;21055;-70
2022/08/19 07:08:54;;;;;;;13.55;4.97;;;;;;;26.13;100.00;99281.25;1636612;86;21042;-70
2022/08/19 07:11:27;;;;;;;13.08;4.10;;;;;;;26.09;100.00;99281.32;1638132;87;21055;-69
2022/08/19 07:13:57;;;;;;;10.85;4.85;;;;;;;26.23;100.00;99276.02;1636782;87;21036;-70
2022/08/19 07:16:27;;;;;;;22.13;5.28;;;;;;;26.15;100.00;99272.35;1621218;87;21566;-70
2022/08/19 07:18:56;;;;;;;12.75;4.58;;;;;;;26.18;100.00;99273.70;1636569;87;21038;-67
2022/08/19 07:21:30;;;;;;;16.90;4.72;;;;;;;26.30;100.00;99272.85;1636418;87;20999;-69
2022/08/19 07:23:57;;;;;;;13.45;5.10;;;;;;;26.42;100.00;99271.42;1636702;87;21222;-76
2022/08/19 07:26:28;;;;;;;13.38;4.60;;;;;;;26.46;100.00;99270.75;1622700;87;21134;-71
2022/08/19 07:28:56;;;;;;;20.62;5.70;;;;;;;26.59;100.00;99265.22;1636190;87;21101;-68
2022/08/19 07:31:24;;;;;;;9.10;4.15;;;;;;;26.77;100.00;99262.62;1637020;87;21579;-73
2022/08/19 07:33:55;;;;;;;12.37;4.47;;;;;;;26.74;100.00;99268.52;1636220;87;20995;-74
2022/08/19 07:36:25;;;;;;;17.77;5.17;;;;;;;26.84;100.00;99265.25;1634800;87;21142;-72
2022/08/19 07:38:53;;;;;;;18.87;4.67;;;;;;;26.95;100.00;99265.02;1636902;87;21046;-74
2022/08/19 07:41:24;;;;;;;15.32;4.55;;;;;;;27.11;100.00;99265.66;1636705;87;21075;-69
2022/08/19 07:43:55;;;;;;;10.18;4.90;;;;;;;27.20;100.00;99267.27;1636018;86;21040;-73
2022/08/19 07:46:21;;;;;;;15.53;4.40;;;;;;;27.27;100.00;99263.47;1636455;87;21031;-70
2022/08/19 07:48:52;;;;;;;15.23;4.67;;;;;;;27.38;100.00;99259.58;1635768;87;21084;-74
2022/08/19 07:51:20;;;;;;;14.93;5.22;;;;;;;27.43;100.00;99264.70;1596982;87;21073;-71
2022/08/19 07:53:51;;;;;;;11.97;4.62;;;;;;;27.56;100.00;99265.56;1645368;87;21063;-80
2022/08/19 07:56:22;;;;;;;13.35;4.92;;;;;;;27.68;100.00;99262.63;1645987;87;21054;-75
2022/08/19 07:58:54;;;;;;;21.60;5.50;;;;;;;27.80;100.00;99264.58;1611262;87;21010;-69
2022/08/19 08:01:27;;;;;;;13.93;5.17;;;;;;;27.91;100.00;99268.53;1641323;87;21046;-76
2022/08/19 08:09:36;;;;;;;7.03;4.25;;;;;;;27.91;100.00;99277.80;1621406;87;21051;-71
2022/08/19 08:12:13;;;;;;;15.35;4.83;;;;;;;27.95;100.00;99284.78;1645656;86;21546;-68
2022/08/19 08:14:49;;;;;;;23.05;4.62;;;;;;;28.03;100.00;99291.83;1645228;87;22090;-70
2022/08/19 08:17:19;;;;;;;8.93;4.37;;;;;;;27.98;100.00;99289.54;1617467;87;21077;-74
2022/08/19 08:19:50;;;;;;;14.98;5.60;;;;;;;28.04;100.00;99294.05;1645645;87;21094;-71
2022/08/19 08:25:19;;;;;;;18.62;5.12;;;;;;;28.03;100.00;99285.39;1642020;87;21038;-71
2022/08/19 08:27:47;;;;;;;11.20;5.00;;;;;;;28.07;100.00;99293.15;1645238;87;21112;-67
2022/08/19 08:30:20;;;;;;;15.60;4.72;;;;;;;28.11;100.00;99289.61;1642122;86;21644;-73
2022/08/19 08:32:50;;;;;;;13.00;5.10;;;;;;;28.18;100.00;99297.88;1642671;86;21044;-75
2022/08/19 08:35:25;;;;;;;13.48;4.85;;;;;;;28.22;100.00;99297.01;1619660;87;21039;-74
2022/08/19 08:37:54;;;;;;;18.35;5.58;;;;;;;28.18;100.00;99302.13;1640487;86;21134;-69
2022/08/19 08:40:44;;;;;;;12.13;4.65;;;;;;;28.19;100.00;99298.07;1645090;87;21219;-72
2022/08/19 08:43:32;;;;;;;13.30;4.80;;;;;;;28.30;100.00;99298.39;1644150;87;21031;-75
2022/08/19 08:46:07;;;;;;;13.53;4.87;;;;;;;28.35;100.00;99303.53;1645040;86;21055;-68
2022/08/19 08:48:43;;;;;;;23.20;6.05;;;;;;;28.48;100.00;99298.50;1645817;87;21065;-73
2022/08/19 08:51:41;;;;;;;13.75;4.53;;;;;;;28.56;100.00;99294.20;1644551;86;21829;-77
2022/08/19 08:54:11;;;;;;;15.38;4.45;;;;;;;28.64;100.00;99293.39;1654029;86;21548;-73
2022/08/19 08:56:43;;;;;;;21.77;5.28;;;;;;;28.77;100.00;99295.61;1656317;86;21080;-76
2022/08/19 08:59:32;;;;;;;19.67;4.90;;;;;;;28.76;100.00;99291.17;1653533;86;21102;-79
2022/08/19 09:02:01;;;;;;;13.70;4.85;;;;;;;28.82;100.00;99301.33;1634041;86;21099;-75
2022/08/19 09:04:30;;;;;;;21.70;5.70;;;;;;;28.91;100.00;99300.66;1649857;86;21122;-70
2022/08/19 09:07:45;;;;;;;18.05;5.58;;;;;;;28.89;100.00;99294.03;1626156;87;21281;-75
2022/08/19 09:10:49;;;;;;;16.00;5.15;;;;;;;28.83;100.00;99295.05;1644894;86;21090;-70
2022/08/19 09:13:36;;;;;;;16.55;6.03;;;;;;;28.78;100.00;99295.00;1643750;86;21056;-73
2022/08/19 09:16:15;;;;;;;12.55;5.03;;;;;;;28.84;100.00;99290.34;1654629;86;21059;-71
2022/08/19 09:18:46;;;;;;;19.48;5.90;;;;;;;28.88;100.00;99298.73;1655905;86;21107;-75
2022/08/19 09:21:14;;;;;;;12.65;5.15;;;;;;;28.88;100.00;99302.98;1652988;86;21783;-75
2022/08/19 09:23:43;;;;;;;17.55;5.22;;;;;;;28.95;100.00;99311.25;1656254;86;21072;-74
2022/08/19 09:26:13;;;;;;;11.28;5.55;;;;;;;29.05;100.00;99315.05;1651953;86;21063;-73
2022/08/19 09:28:44;;;;;;;13.20;5.03;;;;;;;29.15;100.00;99313.91;1656341;86;20989;-72
2022/08/19 09:31:22;;;;;;;10.23;5.22;;;;;;;29.28;100.00;99313.09;1653763;86;21083;-73
2022/08/19 09:33:52;;;;;;;19.52;5.55;;;;;;;29.44;100.00;99317.84;1652164;86;21573;-75
2022/08/19 09:36:24;;;;;;;16.93;5.72;;;;;;;29.59;100.00;99315.93;1653699;86;21080;-72
2022/08/19 09:39:00;;;;;;;22.67;5.30;;;;;;;29.72;100.00;99311.69;1649543;86;21155;-73
2022/08/19 09:41:29;;;;;;;19.17;5.55;;;;;;;29.82;100.00;99313.34;1656528;86;21111;-73
2022/08/19 09:44:03;;;;;;;14.70;4.75;;;;;;;29.91;100.00;99318.95;1655263;86;21132;-78
2022/08/19 09:49:07;;;;;;;15.98;5.37;;;;;;;30.04;100.00;99318.28;1628840;88;21064;-73
2022/08/19 09:51:40;;;;;;;10.63;4.53;;;;;;;30.15;100.00;99312.81;1657218;86;21146;-71
2022/08/19 09:54:17;;;;;;;11.88;4.87;;;;;;;30.23;100.00;99309.94;1658103;86;21024;-72
2022/08/19 09:56:45;;;;;;;14.47;5.08;;;;;;;30.09;100.00;99310.59;1638107;86;21099;-74
2022/08/19 09:59:16;;;;;;;10.23;4.97;;;;;;;30.05;100.00;99311.95;1659157;86;21084;-79
2022/08/19 10:01:46;;;;;;;10.98;4.83;;;;;;;29.92;100.00;99315.66;1663597;86;21024;-75
2022/08/19 10:04:21;;;;;;;18.07;4.70;;;;;;;29.94;100.00;99325.13;1660439;86;21107;-76
2022/08/19 10:07:08;;;;;;;17.57;5.53;;;;;;;29.89;100.00;99320.19;1637123;86;21055;-73
2022/08/19 10:09:37;;;;;;;13.30;5.25;;;;;;;29.92;100.00;99327.63;1662613;86;21060;-69
2022/08/19 10:12:04;;;;;;;13.20;5.05;;;;;;;30.01;100.00;99341.89;1662274;86;21107;-70
2022/08/19 10:14:39;;;;;;;15.30;4.65;;;;;;;29.92;100.00;99332.69;1660911;86;21075;-76
2022/08/19 10:17:07;;;;;;;24.05;6.58;;;;;;;29.88;100.00;99332.81;1663907;86;21064;-73
2022/08/19 10:19:41;;;;;;;15.28;5.50;;;;;;;29.89;100.00;99332.97;1659765;86;21068;-70
2022/08/19 10:22:10;;;;;;;10.33;4.23;;;;;;;29.95;100.00;99334.60;1663991;86;21142;-75
2022/08/19 10:24:41;;;;;;;16.07;5.45;;;;;;;30.05;100.00;99330.41;1659303;86;22233;-75
2022/08/19 10:27:09;;;;;;;15.48;5.30;;;;;;;30.15;100.00;99336.95;1663080;86;21661;-74
2022/08/19 10:29:36;;;;;;;63.17;7.25;;;;;;;30.17;100.00;99331.61;1658109;86;21060;-73
2022/08/19 10:32:07;;;;;;;11.38;4.67;;;;;;;30.10;100.00;99332.05;1663258;84;21027;-69
2022/08/19 10:34:37;;;;;;;22.87;7.20;;;;;;;30.00;100.00;99336.05;1659581;86;21055;-77
2022/08/19 10:37:07;;;;;;;13.60;4.28;;;;;;;29.87;100.00;99341.14;1660084;86;21062;-72
2022/08/19 10:39:42;;;;;;;10.85;4.65;;;;;;;29.81;100.00;99341.56;1659335;86;21076;-71
2022/08/19 10:42:10;;;;;;;10.18;4.55;;;;;;;29.83;100.00;99351.04;1646522;86;21106;-77
2022/08/19 10:44:38;;;;;;;15.98;5.00;;;;;;;29.79;100.00;99351.16;1664075;86;21096;-76
2022/08/19 10:47:07;;;;;;;22.07;6.10;;;;;;;29.80;100.00;99346.28;1663736;86;21100;-77
2022/08/19 10:52:33;;;;;;;15.00;5.08;;;;;;;29.77;100.00;99346.55;1636600;86;40101;-76
2022/08/19 10:57:47;;;;;;;20.80;5.72;;;;;;;29.82;100.00;99359.39;1635648;86;21003;-75
2022/08/19 11:00:42;;;;;;;16.05;5.40;;;;;;;29.74;100.00;99365.31;1635186;87;21140;-73
2022/08/19 11:03:12;;;;;;;9.63;4.37;;;;;;;29.77;100.00;99376.36;1636312;87;22493;-73
2022/08/19 11:05:44;;;;;;;20.10;5.40;;;;;;;29.70;100.00;99373.14;1638006;85;21078;-70
2022/08/19 11:08:13;;;;;;;18.42;5.25;;;;;;;29.78;100.00;99380.00;1637163;85;21468;-74
2022/08/19 11:10:43;;;;;;;17.70;5.30;;;;;;;29.85;100.00;99372.67;1636042;86;21060;-73
2022/08/19 11:13:16;;;;;;;21.12;5.05;;;;;;;29.90;100.00;99373.51;1636174;86;21131;-72
2022/08/19 11:16:03;;;;;;;13.32;4.42;;;;;;;30.05;100.00;99375.22;1634844;86;21063;-79
2022/08/19 11:18:48;;;;;;;38.20;5.72;;;;;;;30.19;100.00;99368.87;1639671;85;21071;-73
2022/08/19 11:21:33;;;;;;;11.10;5.03;;;;;;;30.33;100.00;99356.23;1640618;85;21000;-74
2022/08/19 11:24:15;;;;;;;10.40;5.40;;;;;;;30.45;100.00;99358.20;1638882;84;21015;-70
2022/08/19 11:26:57;;;;;;;19.25;5.03;;;;;;;30.58;100.00;99359.56;1634501;87;21067;-75
2022/08/19 11:29:25;;;;;;;9.90;4.53;;;;;;;30.69;100.00;99360.56;1638093;85;21031;-73
2022/08/19 11:31:56;;;;;;;10.25;5.42;;;;;;;30.64;100.00;99360.39;1640198;85;21065;-72
2022/08/19 11:34:28;;;;;;;16.48;5.25;;;;;;;30.52;100.00;99357.78;1635065;86;20991;-76
2022/08/19 11:36:57;;;;;;;22.87;5.97;;;;;;;30.47;100.00;99357.11;1643471;85;21063;-73
2022/08/19 11:39:23;;;;;;;18.42;5.42;;;;;;;30.46;100.00;99359.80;1639022;85;21020;-74
2022/08/19 11:41:49;;;;;;;13.20;4.70;;;;;;;30.47;100.00;99356.34;1637246;85;21229;-76
2022/08/19 11:44:20;;;;;;;11.68;4.05;;;;;;;30.51;100.00;99354.14;1600677;85;21027;-75
2022/08/19 11:46:48;;;;;;;13.35;4.40;;;;;;;30.54;100.00;99353.21;1640521;85;21034;-74
2022/08/19 11:49:18;;;;;;;8.40;4.75;;;;;;;30.52;100.00;99353.52;1637782;85;21480;-76
2022/08/19 11:51:46;;;;;;;9.23;4.50;;;;;;;30.44;100.00;99350.14;1637698;85;21062;-73
2022/08/19 11:54:16;;;;;;;13.08;4.35;;;;;;;30.35;100.00;99365.86;1640675;85;21084;-76
2022/08/19 11:56:46;;;;;;;11.78;4.80;;;;;;;30.22;100.00;99369.39;1638503;85;21045;-81
2022/08/19 11:59:14;;;;;;;13.62;4.33;;;;;;;30.12;100.00;99369.30;1636778;87;21077;-73
2022/08/19 12:01:49;;;;;;;15.75;4.40;;;;;;;29.99;100.00;99372.81;1635716;86;21104;-73
2022/08/19 12:04:16;;;;;;;9.88;4.45;;;;;;;29.83;100.00;99366.03;1636770;86;21608;-73
2022/08/19 12:06:50;;;;;;;14.43;4.83;;;;;;;29.75;100.00;99366.88;1636935;87;21057;-76